createdAt,value
2022-09-16T00:00:51.787Z,3.70
2022-09-16T00:03:19.356Z,3.97
2022-09-16T00:05:49.736Z,3.72
2022-09-16T00:08:18.617Z,4.35
2022-09-16T00:10:46.091Z,3.70
2022-09-16T00:13:13.896Z,4.18
2022-09-16T00:15:49.285Z,4.50
2022-09-16T00:20:45.476Z,4.45
2022-09-16T00:23:12.898Z,4.03
2022-09-16T00:25:39.941Z,4.15
2022-09-16T00:28:07.327Z,4.07
2022-09-16T00:30:34.416Z,4.22
2022-09-16T00:33:01.381Z,4.22
2022-09-16T00:35:28.456Z,4.03
2022-09-16T00:37:55.376Z,4.10
2022-09-16T00:40:23.088Z,4.32
2022-09-16T00:42:50.191Z,4.45
2022-09-16T00:45:25.121Z,5.22
2022-09-16T00:47:56.371Z,4.47
2022-09-16T00:50:51.458Z,4.53
2022-09-16T00:53:24.933Z,4.15
2022-09-16T00:55:54.872Z,3.97
2022-09-16T00:58:46.226Z,4.00
2022-09-16T01:01:13.319Z,4.13
2022-09-16T01:03:51.826Z,3.55
2022-09-16T01:06:19.674Z,4.25
2022-09-16T01:08:46.836Z,4.00
2022-09-16T01:11:13.947Z,4.68
2022-09-16T01:13:43.346Z,4.25
2022-09-16T01:16:26.106Z,4.22
2022-09-16T01:19:01.236Z,3.95
2022-09-16T01:22:17.796Z,3.60
2022-09-16T01:25:18.683Z,3.92
2022-09-16T01:28:04.006Z,4.75
2022-09-16T01:30:30.927Z,4.00
2022-09-16T01:33:08.811Z,4.22
2022-09-16T01:36:02.442Z,4.00
2022-09-16T01:38:56.267Z,4.35
2022-09-16T01:41:38.176Z,4.35
2022-09-16T01:44:31.542Z,4.32
2022-09-16T01:47:04.176Z,4.10
2022-09-16T01:49:36.961Z,3.92
2022-09-16T01:52:23.206Z,3.72
2022-09-16T01:55:03.807Z,3.88
2022-09-16T01:57:48.152Z,3.70
2022-09-16T02:00:15.997Z,3.80
2022-09-16T02:03:06.611Z,3.40
2022-09-16T02:05:43.096Z,3.90
2022-09-16T02:08:14.626Z,4.05
2022-09-16T02:10:51.050Z,4.05
2022-09-16T02:13:27.277Z,4.20
2022-09-16T02:15:59.285Z,4.00
2022-09-16T02:18:33.346Z,4.40
2022-09-16T02:21:03.223Z,4.00
2022-09-16T02:23:41.420Z,4.22
2022-09-16T02:26:12.661Z,4.30
2022-09-16T02:28:44.377Z,4.20
2022-09-16T02:31:14.030Z,4.50
2022-09-16T02:33:48.227Z,4.70
2022-09-16T02:36:21.026Z,4.60
2022-09-16T02:38:54.951Z,4.60
2022-09-16T02:41:23.205Z,4.88
2022-09-16T02:43:50.211Z,4.20
2022-09-16T02:46:39.963Z,5.03
2022-09-16T02:49:19.241Z,3.63
2022-09-16T02:52:11.061Z,4.35
2022-09-16T02:54:58.225Z,4.00
2022-09-16T02:57:25.385Z,4.35
2022-09-16T02:59:52.943Z,4.90
2022-09-16T03:02:21.108Z,4.00
2022-09-16T03:04:48.370Z,4.40
2022-09-16T03:07:16.746Z,4.20
2022-09-16T03:09:47.735Z,4.20
2022-09-16T03:12:49.627Z,4.40
2022-09-16T03:15:28.500Z,4.15
2022-09-16T03:18:14.559Z,4.43
2022-09-16T03:20:57.905Z,4.72
2022-09-16T03:23:30.681Z,4.50
2022-09-16T03:26:23.515Z,4.13
2022-09-16T03:29:12.585Z,4.28
2022-09-16T03:32:21.143Z,3.90
2022-09-16T03:35:06.611Z,4.45
2022-09-16T03:37:36.246Z,5.05
2022-09-16T03:40:11.086Z,4.82
2022-09-16T03:42:42.895Z,4.68
2022-09-16T03:45:21.580Z,4.75
2022-09-16T03:47:50.618Z,4.10
2022-09-16T03:50:19.205Z,4.63
2022-09-16T03:52:46.428Z,5.32
2022-09-16T03:55:13.935Z,3.80
2022-09-16T03:57:40.986Z,4.63
2022-09-16T04:00:09.591Z,4.22
2022-09-16T04:02:36.560Z,4.50
2022-09-16T04:05:04.439Z,4.47
2022-09-16T04:07:33.695Z,4.22
2022-09-16T04:10:02.026Z,4.43
2022-09-16T04:12:29.471Z,4.50
2022-09-16T04:14:56.448Z,5.03
2022-09-16T04:17:24.248Z,5.35
2022-09-16T04:19:52.984Z,4.50
2022-09-16T04:22:19.966Z,4.78
2022-09-16T04:24:46.976Z,4.75
2022-09-16T04:27:14.036Z,4.60
2022-09-16T04:29:41.060Z,4.55
2022-09-16T04:32:08.091Z,4.18
2022-09-16T04:34:35.137Z,4.50
2022-09-16T04:37:02.150Z,4.10
2022-09-16T04:39:29.100Z,4.50
2022-09-16T04:41:56.083Z,4.47
2022-09-16T04:44:23.052Z,4.93
2022-09-16T04:46:50.012Z,4.60
2022-09-16T04:49:17.096Z,4.88
2022-09-16T04:51:44.070Z,4.63
2022-09-16T04:54:12.537Z,4.78
2022-09-16T04:56:39.455Z,4.68
2022-09-16T04:59:06.678Z,5.35
2022-09-16T05:01:37.168Z,4.90
2022-09-16T05:04:07.147Z,5.00
2022-09-16T05:06:37.695Z,4.85
2022-09-16T05:09:05.797Z,4.88
2022-09-16T05:11:35.205Z,5.25
2022-09-16T05:14:04.060Z,5.30
2022-09-16T05:16:32.956Z,4.88
2022-09-16T05:19:03.845Z,5.03
2022-09-16T05:21:34.365Z,4.90
2022-09-16T05:24:03.040Z,4.90
2022-09-16T05:26:32.106Z,4.85
2022-09-16T05:29:04.536Z,5.03
2022-09-16T05:31:34.193Z,5.75
2022-09-16T05:34:07.667Z,5.07
2022-09-16T05:36:37.815Z,4.88
2022-09-16T05:39:22.019Z,5.40
2022-09-16T05:41:52.852Z,4.80
2022-09-16T05:44:19.806Z,5.35
2022-09-16T05:46:46.750Z,5.55
2022-09-16T05:49:13.856Z,4.90
2022-09-16T05:51:44.223Z,5.43
2022-09-16T05:54:11.302Z,12.23
2022-09-16T05:56:38.660Z,6.60
2022-09-16T05:59:06.158Z,5.45
2022-09-16T06:01:35.039Z,5.13
2022-09-16T06:04:04.995Z,4.70
2022-09-16T06:06:37.017Z,5.13
2022-09-16T06:09:30.761Z,5.50
2022-09-16T06:12:02.176Z,4.88
2022-09-16T06:14:30.193Z,5.28
2022-09-16T06:16:57.555Z,4.50
2022-09-16T06:19:24.762Z,4.45
2022-09-16T06:21:51.821Z,3.70
2022-09-16T06:24:20.591Z,3.92
2022-09-16T06:26:49.511Z,3.50
2022-09-16T06:29:17.787Z,3.40
2022-09-16T06:31:44.810Z,3.30
2022-09-16T06:34:16.459Z,3.58
2022-09-16T06:36:45.367Z,3.50
2022-09-16T06:39:14.025Z,3.20
2022-09-16T06:41:41.010Z,3.75
2022-09-16T06:44:08.274Z,3.42
2022-09-16T06:46:35.385Z,3.40
2022-09-16T06:49:05.809Z,3.47
2022-09-16T06:51:34.735Z,3.80
2022-09-16T06:54:05.139Z,3.92
2022-09-16T06:56:32.641Z,4.25
2022-09-16T06:58:59.726Z,3.80
2022-09-16T07:01:29.862Z,5.95
2022-09-16T07:03:58.621Z,4.40
2022-09-16T07:06:57.381Z,3.95
2022-09-16T07:09:17.002Z,4.10
2022-09-16T07:11:43.983Z,4.00
2022-09-16T07:14:11.149Z,4.78
2022-09-16T07:16:38.121Z,4.65
2022-09-16T07:19:05.506Z,4.35
2022-09-16T07:21:32.529Z,4.20
2022-09-16T07:24:01.766Z,4.43
2022-09-16T07:26:34.241Z,4.40
2022-09-16T07:29:03.930Z,4.47
2022-09-16T07:31:33.334Z,4.32
2022-09-16T07:34:04.902Z,5.07
2022-09-16T07:36:35.510Z,5.05
2022-09-16T07:39:03.197Z,4.57
2022-09-16T07:41:34.416Z,4.50
2022-09-16T07:44:02.355Z,4.57
2022-09-16T07:46:32.547Z,4.75
2022-09-16T07:49:01.177Z,4.95
2022-09-16T07:51:29.685Z,4.90
2022-09-16T07:53:59.539Z,4.50
2022-09-16T07:56:29.227Z,5.20
2022-09-16T07:58:57.775Z,4.40
2022-09-16T08:01:26.103Z,4.85
2022-09-16T08:03:53.982Z,4.78
2022-09-16T08:06:23.163Z,3.95
2022-09-16T08:08:53.755Z,5.00
2022-09-16T08:11:21.627Z,4.72
2022-09-16T08:13:48.826Z,4.40
2022-09-16T08:16:21.484Z,4.50
2022-09-16T08:18:51.536Z,4.35
2022-09-16T08:21:26.756Z,4.55
2022-09-16T08:23:54.696Z,4.65
2022-09-16T08:26:22.257Z,3.92
2022-09-16T08:29:09.015Z,4.10
2022-09-16T08:31:37.817Z,4.40
2022-09-16T08:34:05.447Z,4.38
2022-09-16T08:36:35.261Z,4.18
2022-09-16T08:39:02.286Z,4.43
2022-09-16T08:41:47.913Z,4.53
2022-09-16T08:47:11.128Z,4.40
2022-09-16T08:49:46.982Z,4.78
2022-09-16T08:52:30.291Z,4.07
2022-09-16T08:55:11.445Z,4.85
2022-09-16T08:57:58.201Z,4.47
2022-09-16T09:00:25.216Z,3.95
2022-09-16T09:03:15.790Z,3.72
2022-09-16T09:05:42.722Z,4.85
2022-09-16T09:08:21.440Z,4.90
2022-09-16T09:10:53.715Z,4.53
2022-09-16T09:13:48.947Z,4.00
2022-09-16T09:16:37.961Z,4.73
2022-09-16T09:19:25.442Z,4.20
2022-09-16T09:22:08.471Z,6.10
2022-09-16T09:24:57.416Z,4.97
2022-09-16T09:27:35.336Z,4.82
2022-09-16T09:30:22.170Z,5.18
2022-09-16T09:32:52.165Z,5.50
2022-09-16T09:35:31.506Z,4.50
2022-09-16T09:38:16.551Z,4.63
2022-09-16T09:40:49.671Z,4.90
2022-09-16T09:43:22.620Z,4.63
2022-09-16T09:46:08.448Z,4.80
2022-09-16T09:48:43.495Z,4.28
2022-09-16T09:51:33.253Z,5.18
2022-09-16T09:54:21.947Z,4.97
2022-09-16T09:56:51.037Z,6.10
2022-09-16T09:59:37.515Z,4.53
2022-09-16T10:02:17.012Z,4.68
2022-09-16T10:04:44.855Z,5.07
2022-09-16T10:07:18.349Z,5.05
2022-09-16T10:10:02.814Z,5.30
2022-09-16T10:12:35.220Z,4.78
2022-09-16T10:15:02.944Z,6.05
2022-09-16T10:17:32.839Z,5.38
2022-09-16T10:20:26.485Z,5.45
2022-09-16T10:23:04.971Z,5.72
2022-09-16T10:25:33.491Z,5.78
2022-09-16T10:28:03.204Z,4.45
2022-09-16T10:30:48.525Z,4.95
2022-09-16T10:33:26.540Z,5.28
2022-09-16T10:36:00.714Z,4.70
2022-09-16T10:38:50.810Z,5.32
2022-09-16T10:41:20.434Z,5.18
2022-09-16T10:43:53.844Z,5.43
2022-09-16T10:46:21.407Z,4.20
2022-09-16T10:48:52.073Z,4.82
2022-09-16T10:51:27.680Z,4.78
2022-09-16T10:54:00.500Z,4.88
2022-09-16T10:56:33.944Z,5.18
2022-09-16T10:59:04.095Z,5.18
2022-09-16T11:01:44.893Z,5.43
2022-09-16T11:04:22.066Z,4.47
2022-09-16T11:07:09.024Z,4.78
2022-09-16T11:09:53.193Z,5.00
2022-09-16T11:12:50.399Z,5.43
2022-09-16T11:15:30.804Z,4.68
2022-09-16T11:18:24.889Z,5.05
2022-09-16T11:21:08.036Z,5.15
2022-09-16T11:23:47.373Z,5.20
2022-09-16T11:26:45.163Z,5.15
2022-09-16T11:29:56.353Z,4.43
2022-09-16T11:32:47.416Z,5.35
2022-09-16T11:35:26.774Z,4.80
2022-09-16T11:38:03.628Z,4.75
2022-09-16T11:40:50.364Z,4.93
2022-09-16T11:43:42.873Z,5.07
2022-09-16T11:46:40.540Z,4.90
2022-09-16T11:49:22.214Z,5.45
2022-09-16T11:52:18.023Z,5.45
2022-09-16T11:55:13.423Z,5.35
2022-09-16T11:57:45.559Z,5.40
2022-09-16T12:00:18.593Z,5.03
2022-09-16T12:03:22.814Z,4.75
2022-09-16T12:06:03.742Z,5.25
2022-09-16T12:09:00.884Z,5.65
2022-09-16T12:11:48.680Z,5.05
2022-09-16T12:14:33.803Z,5.45
2022-09-16T12:17:11.784Z,5.15
2022-09-16T12:19:47.188Z,5.15
2022-09-16T12:22:23.313Z,5.85
2022-09-16T12:25:16.349Z,5.45
2022-09-16T12:27:54.943Z,4.90
2022-09-16T12:30:25.698Z,4.97
2022-09-16T12:33:11.243Z,3.95
2022-09-16T12:36:00.968Z,4.90
2022-09-16T12:38:27.949Z,4.88
2022-09-16T12:41:20.699Z,5.13
2022-09-16T12:44:33.421Z,4.70
2022-09-16T12:47:13.383Z,4.97
2022-09-16T12:50:21.070Z,5.68
2022-09-16T12:53:21.991Z,5.47
2022-09-16T12:56:04.863Z,4.38
2022-09-16T12:58:56.999Z,4.60
2022-09-16T13:01:31.419Z,4.65
2022-09-16T13:04:03.375Z,5.47
2022-09-16T13:06:35.025Z,4.35
2022-09-16T13:09:31.080Z,4.88
2022-09-16T13:14:59.099Z,5.10
2022-09-16T13:17:31.721Z,4.85
2022-09-16T13:20:06.519Z,4.15
2022-09-16T13:22:48.349Z,4.35
2022-09-16T13:25:47.715Z,4.65
2022-09-16T13:28:25.196Z,4.07
2022-09-16T13:30:52.842Z,4.13
2022-09-16T13:33:28.922Z,3.88
2022-09-16T13:36:16.822Z,4.60
2022-09-16T13:38:47.055Z,4.30
2022-09-16T13:41:14.946Z,4.63
2022-09-16T13:43:47.757Z,4.68
2022-09-16T13:46:31.961Z,5.05
2022-09-16T13:49:11.115Z,4.35
2022-09-16T13:51:47.905Z,4.88
2022-09-16T13:54:37.173Z,4.90
2022-09-16T13:57:37.990Z,4.45
2022-09-16T14:00:09.947Z,4.63
2022-09-16T14:03:03.944Z,4.82
2022-09-16T14:05:46.330Z,4.75
2022-09-16T14:08:35.027Z,4.40
2022-09-16T14:11:25.522Z,4.32
2022-09-16T14:14:46.865Z,4.22
2022-09-16T14:17:27.764Z,4.57
2022-09-16T14:19:59.496Z,4.78
2022-09-16T14:22:28.172Z,4.78
2022-09-16T14:25:07.019Z,4.85
2022-09-16T14:27:44.114Z,4.20
2022-09-16T14:30:19.556Z,4.57
2022-09-16T14:32:48.857Z,3.78
2022-09-16T14:35:24.996Z,4.40
2022-09-16T14:37:59.683Z,4.10
2022-09-16T14:40:28.570Z,3.85
2022-09-16T14:43:00.487Z,4.35
2022-09-16T14:45:31.088Z,4.15
2022-09-16T14:48:01.746Z,3.92
2022-09-16T14:50:41.181Z,4.63
2022-09-16T14:53:35.453Z,3.95
2022-09-16T14:56:04.885Z,4.53
2022-09-16T14:58:33.716Z,4.35
2022-09-16T15:01:08.990Z,4.80
2022-09-16T15:03:46.436Z,4.00
2022-09-16T15:06:24.367Z,4.28
2022-09-16T15:09:15.613Z,4.82
2022-09-16T15:11:54.827Z,3.92
2022-09-16T15:14:25.031Z,4.13
2022-09-16T15:17:03.442Z,4.10
2022-09-16T15:19:41.307Z,4.05
2022-09-16T15:22:13.524Z,4.68
2022-09-16T15:24:41.807Z,3.80
2022-09-16T15:27:09.584Z,4.32
2022-09-16T15:29:52.922Z,3.92
2022-09-16T15:32:24.178Z,3.97
2022-09-16T15:35:19.726Z,4.40
2022-09-16T15:37:46.830Z,4.68
2022-09-16T15:40:28.844Z,4.18
2022-09-16T15:43:18.031Z,4.63
2022-09-16T15:45:58.195Z,4.47
2022-09-16T15:48:29.217Z,4.25
2022-09-16T15:51:01.735Z,4.15
2022-09-16T15:53:31.552Z,4.90
2022-09-16T15:56:07.688Z,5.00
2022-09-16T15:58:44.776Z,4.18
2022-09-16T16:01:35.660Z,4.60
2022-09-16T16:04:05.351Z,4.70
2022-09-16T16:06:51.476Z,4.90
2022-09-16T16:09:27.611Z,3.80
2022-09-16T16:12:11.976Z,4.30
2022-09-16T16:14:40.475Z,3.83
2022-09-16T16:17:14.769Z,4.07
2022-09-16T16:19:47.132Z,4.18
2022-09-16T16:22:17.311Z,4.32
2022-09-16T16:24:45.551Z,4.40
2022-09-16T16:27:12.745Z,4.22
2022-09-16T16:29:39.896Z,3.80
2022-09-16T16:32:13.937Z,3.75
2022-09-16T16:34:46.866Z,3.78
2022-09-16T16:37:33.688Z,3.42
2022-09-16T16:40:01.457Z,4.15
2022-09-16T16:42:28.942Z,3.53
2022-09-16T16:44:56.831Z,3.80
2022-09-16T16:47:24.270Z,4.22
2022-09-16T16:49:52.115Z,4.32
2022-09-16T16:52:19.275Z,4.20
2022-09-16T16:54:46.855Z,3.65
2022-09-16T16:57:14.245Z,4.05
2022-09-16T16:59:41.310Z,4.20
2022-09-16T17:02:11.889Z,4.50
2022-09-16T17:04:39.046Z,4.35
2022-09-16T17:07:25.160Z,4.53
2022-09-16T17:09:53.599Z,3.90
2022-09-16T17:12:20.957Z,4.35
2022-09-16T17:14:50.029Z,3.63
2022-09-16T17:17:17.126Z,4.32
2022-09-16T17:19:47.471Z,4.90
2022-09-16T17:22:14.650Z,4.25
2022-09-16T17:24:41.786Z,4.43
2022-09-16T17:27:08.937Z,4.38
2022-09-16T17:29:35.960Z,4.38
2022-09-16T17:32:04.361Z,4.78
2022-09-16T17:34:33.818Z,4.60
2022-09-16T17:37:03.209Z,4.40
2022-09-16T17:39:30.250Z,4.40
2022-09-16T17:41:57.576Z,5.13
2022-09-16T17:44:25.069Z,4.60
2022-09-16T17:46:55.566Z,4.68
2022-09-16T17:49:25.828Z,4.10
2022-09-16T17:51:54.199Z,4.10
2022-09-16T17:54:22.016Z,4.40
2022-09-16T17:56:49.061Z,4.93
2022-09-16T17:59:17.960Z,4.20
2022-09-16T18:01:47.596Z,4.78
2022-09-16T18:04:14.996Z,4.78
2022-09-16T18:06:48.190Z,4.68
2022-09-16T18:09:16.775Z,4.60
2022-09-16T18:11:44.448Z,4.50
2022-09-16T18:14:13.431Z,4.20
2022-09-16T18:16:41.685Z,4.65
2022-09-16T18:19:10.275Z,4.13
2022-09-16T18:21:38.391Z,4.30
2022-09-16T18:24:12.236Z,4.97
2022-09-16T18:26:43.231Z,4.10
2022-09-16T18:29:12.583Z,4.55
2022-09-16T18:31:41.921Z,4.55
2022-09-16T18:34:09.131Z,4.85
2022-09-16T18:36:39.565Z,5.20
2022-09-16T18:39:07.801Z,4.78
2022-09-16T18:41:37.773Z,6.47
2022-09-16T18:44:19.808Z,6.60
2022-09-16T18:46:51.673Z,5.28
2022-09-16T18:49:24.217Z,4.47
2022-09-16T18:51:56.846Z,4.65
2022-09-16T18:54:28.378Z,4.47
2022-09-16T18:57:03.746Z,4.68
2022-09-16T18:59:34.476Z,3.65
2022-09-16T19:02:04.047Z,5.10
2022-09-16T19:04:35.737Z,5.60
2022-09-16T19:07:08.346Z,5.40
2022-09-16T19:09:38.309Z,5.72
2022-09-16T19:12:06.989Z,5.70
2022-09-16T19:14:34.081Z,5.45
2022-09-16T19:17:01.388Z,5.63
2022-09-16T19:19:28.481Z,5.60
2022-09-16T19:21:55.766Z,5.80
2022-09-16T19:24:25.121Z,5.45
2022-09-16T19:26:54.311Z,4.60
2022-09-16T19:29:21.856Z,5.50
2022-09-16T19:31:54.883Z,4.85
2022-09-16T19:34:27.556Z,4.88
2022-09-16T19:36:56.455Z,4.45
2022-09-16T19:39:27.296Z,4.20
2022-09-16T19:41:54.296Z,4.30
2022-09-16T19:44:21.374Z,4.07
2022-09-16T19:46:49.624Z,3.85
2022-09-16T19:49:23.205Z,3.95
2022-09-16T19:51:52.662Z,3.72
2022-09-16T19:54:24.360Z,3.25
2022-09-16T19:56:54.046Z,3.75
2022-09-16T19:59:22.365Z,3.13
2022-09-16T20:01:52.552Z,3.35
2022-09-16T20:04:22.442Z,3.45
2022-09-16T20:06:50.222Z,2.67
2022-09-16T20:09:17.509Z,2.42
2022-09-16T20:11:52.175Z,2.58
2022-09-16T20:14:21.398Z,2.42
2022-09-16T20:16:50.121Z,2.20
2022-09-16T20:19:18.832Z,2.42
2022-09-16T20:21:45.981Z,2.28
2022-09-16T20:24:18.660Z,2.38
2022-09-16T20:26:46.763Z,2.20
2022-09-16T20:29:17.391Z,1.75
2022-09-16T20:31:45.529Z,2.25
2022-09-16T20:34:16.462Z,1.80
2022-09-16T20:36:45.983Z,1.50
2022-09-16T20:39:13.975Z,1.67
2022-09-16T20:41:42.342Z,1.35
2022-09-16T20:44:14.711Z,1.73
2022-09-16T20:46:42.197Z,1.75
2022-09-16T20:49:15.298Z,1.75
2022-09-16T20:51:44.716Z,1.50
2022-09-16T20:54:14.397Z,1.80
2022-09-16T20:56:44.286Z,1.63
2022-09-16T20:59:13.101Z,1.50
2022-09-16T21:01:41.750Z,1.48
2022-09-16T21:04:15.776Z,1.65
2022-09-16T21:06:43.346Z,1.48
2022-09-16T21:09:12.830Z,1.40
2022-09-16T21:11:45.257Z,1.80
2022-09-16T21:14:15.414Z,1.50
2022-09-16T21:16:44.009Z,1.33
2022-09-16T21:19:13.015Z,1.48
2022-09-16T21:21:42.465Z,1.65
2022-09-16T21:24:09.950Z,1.35
2022-09-16T21:26:39.051Z,1.10
2022-09-16T21:29:13.846Z,1.45
2022-09-16T21:31:42.448Z,1.40
2022-09-16T21:34:27.411Z,1.52
2022-09-16T21:36:55.341Z,1.45
2022-09-16T21:39:22.956Z,1.40
2022-09-16T21:41:50.306Z,1.70
2022-09-16T21:44:18.197Z,1.58
2022-09-16T21:46:46.558Z,1.42
2022-09-16T21:49:25.840Z,1.50
2022-09-16T21:51:55.231Z,1.73
2022-09-16T21:54:23.245Z,2.10
2022-09-16T21:56:51.326Z,1.65
2022-09-16T21:59:22.367Z,1.60
2022-09-16T22:01:51.038Z,1.70
2022-09-16T22:04:20.861Z,1.42
2022-09-16T22:06:48.941Z,1.63
2022-09-16T22:09:16.490Z,1.60
2022-09-16T22:11:43.596Z,1.35
2022-09-16T22:14:13.799Z,1.27
2022-09-16T22:16:41.608Z,1.27
2022-09-16T22:19:17.069Z,1.10
2022-09-16T22:21:48.551Z,1.00
2022-09-16T22:24:22.291Z,0.95
2022-09-16T22:26:52.047Z,0.90
2022-09-16T22:29:19.483Z,0.82
2022-09-16T22:31:47.006Z,0.85
2022-09-16T22:34:14.172Z,0.90
2022-09-16T22:36:42.102Z,0.80
2022-09-16T22:39:13.731Z,0.90
2022-09-16T22:41:41.173Z,0.93
2022-09-16T22:44:08.501Z,0.80
2022-09-16T22:46:42.215Z,0.70
2022-09-16T22:49:09.941Z,0.70
2022-09-16T22:51:39.869Z,0.90
2022-09-16T22:54:07.674Z,0.70
2022-09-16T22:56:35.468Z,0.77
2022-09-16T22:59:04.906Z,0.47
2022-09-16T23:01:35.490Z,0.50
2022-09-16T23:04:04.695Z,0.60
2022-09-16T23:06:33.778Z,0.50
2022-09-16T23:09:01.226Z,0.68
2022-09-16T23:11:32.217Z,0.57
2022-09-16T23:14:02.687Z,0.50
2022-09-16T23:16:35.277Z,0.70
2022-09-16T23:19:05.972Z,0.60
2022-09-16T23:21:33.672Z,0.70
2022-09-16T23:24:03.392Z,0.50
2022-09-16T23:26:37.226Z,0.60
2022-09-16T23:29:06.520Z,0.50
2022-09-16T23:31:35.881Z,0.50
2022-09-16T23:34:07.744Z,0.60
2022-09-16T23:36:38.865Z,0.50
2022-09-16T23:39:07.569Z,0.60
2022-09-16T23:41:35.841Z,0.60
2022-09-16T23:44:03.251Z,0.60
2022-09-16T23:46:31.352Z,0.70
2022-09-16T23:48:59.165Z,0.70
2022-09-16T23:51:28.659Z,0.60
2022-09-16T23:53:57.493Z,0.70
2022-09-16T23:56:24.601Z,0.45
2022-09-16T23:58:53.484Z,0.40
